createdAt,value
2017-08-02T00:00:26.149Z,0
2017-08-02T00:01:07.055Z,0
2017-08-02T00:01:47.978Z,0
2017-08-02T00:02:28.869Z,0
2017-08-02T00:03:09.789Z,0
2017-08-02T00:03:50.687Z,0
2017-08-02T00:04:31.577Z,0
2017-08-02T00:05:12.472Z,0
2017-08-02T00:05:53.369Z,0
2017-08-02T00:06:34.264Z,0
2017-08-02T00:07:15.159Z,0
2017-08-02T00:07:56.046Z,0
2017-08-02T00:08:36.943Z,0
2017-08-02T00:09:17.840Z,0
2017-08-02T00:09:58.725Z,0
2017-08-02T00:10:39.603Z,0
2017-08-02T00:11:20.506Z,0
2017-08-02T00:12:01.388Z,0
2017-08-02T00:12:42.273Z,0
2017-08-02T00:13:23.168Z,0
2017-08-02T00:14:04.053Z,0
2017-08-02T00:14:44.932Z,0
2017-08-02T00:15:25.826Z,0
2017-08-02T00:16:06.732Z,0
2017-08-02T00:16:47.634Z,0
2017-08-02T00:17:28.521Z,0
2017-08-02T00:18:09.421Z,0
2017-08-02T00:18:50.311Z,0
2017-08-02T00:19:31.232Z,0
2017-08-02T00:20:12.141Z,0
2017-08-02T00:20:53.040Z,0
2017-08-02T00:21:33.943Z,0
2017-08-02T00:22:14.835Z,0
2017-08-02T00:22:55.733Z,0
2017-08-02T00:23:36.619Z,0
2017-08-02T00:24:17.511Z,0
2017-08-02T00:24:58.392Z,0
2017-08-02T00:25:39.292Z,0
2017-08-02T00:26:20.188Z,0
2017-08-02T00:27:01.081Z,0
2017-08-02T00:27:41.984Z,0
2017-08-02T00:28:22.880Z,0
2017-08-02T00:29:03.793Z,0
2017-08-02T00:29:44.717Z,0
2017-08-02T00:30:25.681Z,0
2017-08-02T00:31:06.511Z,0
2017-08-02T00:31:47.419Z,0
2017-08-02T00:32:28.316Z,0
2017-08-02T00:33:09.208Z,0
2017-08-02T00:33:50.098Z,0
2017-08-02T00:34:31.001Z,0
2017-08-02T00:35:11.896Z,0
2017-08-02T00:35:52.789Z,0
2017-08-02T00:36:33.685Z,0
2017-08-02T00:37:14.591Z,0
2017-08-02T00:37:55.487Z,0
2017-08-02T00:38:36.385Z,0
2017-08-02T00:39:17.293Z,0
2017-08-02T00:39:58.186Z,0
2017-08-02T00:40:39.087Z,0
2017-08-02T00:41:20.008Z,0
2017-08-02T00:42:00.903Z,0
2017-08-02T00:42:41.808Z,0
2017-08-02T00:43:22.697Z,0
2017-08-02T00:44:03.580Z,0
2017-08-02T00:44:44.484Z,0
2017-08-02T00:45:25.373Z,0
2017-08-02T00:46:06.272Z,0
2017-08-02T00:46:47.169Z,0
2017-08-02T00:47:28.064Z,0
2017-08-02T00:48:08.976Z,0
2017-08-02T00:48:49.863Z,0
2017-08-02T00:49:30.756Z,0
2017-08-02T00:50:11.673Z,0
2017-08-02T00:50:52.555Z,0
2017-08-02T00:51:33.454Z,0
2017-08-02T00:52:14.345Z,0
2017-08-02T00:52:55.230Z,0
2017-08-02T00:53:36.129Z,0
2017-08-02T00:54:17.023Z,0
2017-08-02T00:54:57.913Z,0
2017-08-02T00:55:38.812Z,0
2017-08-02T00:56:19.711Z,0
2017-08-02T00:57:00.606Z,0
2017-08-02T00:57:41.529Z,0
2017-08-02T00:58:22.422Z,0
2017-08-02T00:59:03.325Z,0
2017-08-02T00:59:44.274Z,0
2017-08-02T01:00:25.164Z,0
2017-08-02T01:01:06.056Z,0
2017-08-02T01:01:46.961Z,0
2017-08-02T01:02:27.858Z,0
2017-08-02T01:03:08.758Z,0
2017-08-02T01:03:49.649Z,0
2017-08-02T01:04:30.556Z,0
2017-08-02T01:05:11.449Z,0
2017-08-02T01:05:52.349Z,0
2017-08-02T01:06:33.253Z,0
2017-08-02T01:07:14.153Z,0
2017-08-02T01:07:55.042Z,0
2017-08-02T01:08:35.955Z,0
2017-08-02T01:09:16.831Z,0
2017-08-02T01:09:57.739Z,0
2017-08-02T01:10:38.616Z,0
2017-08-02T01:11:19.499Z,0
2017-08-02T01:12:00.394Z,0
2017-08-02T01:12:41.301Z,0
2017-08-02T01:13:22.176Z,0
2017-08-02T01:14:03.078Z,0
2017-08-02T01:14:43.970Z,0
2017-08-02T01:15:24.852Z,0
2017-08-02T01:16:05.738Z,0
2017-08-02T01:16:46.626Z,0
2017-08-02T01:17:27.524Z,0
2017-08-02T01:18:08.410Z,0
2017-08-02T01:18:49.307Z,0
2017-08-02T01:19:30.201Z,0
2017-08-02T01:20:11.090Z,0
2017-08-02T01:20:52.012Z,0
2017-08-02T01:21:32.899Z,0
2017-08-02T01:22:13.817Z,0
2017-08-02T01:22:54.700Z,0
2017-08-02T01:23:35.588Z,0
2017-08-02T01:24:16.482Z,0
2017-08-02T01:24:57.371Z,0
2017-08-02T01:25:38.257Z,0
2017-08-02T01:26:19.147Z,0
2017-08-02T01:27:00.029Z,0
2017-08-02T01:27:40.909Z,0
2017-08-02T01:28:21.793Z,0
2017-08-02T01:29:02.683Z,0
2017-08-02T01:29:43.579Z,0
2017-08-02T01:30:24.474Z,0
2017-08-02T01:31:05.360Z,0
2017-08-02T01:31:46.254Z,0
2017-08-02T01:32:27.149Z,0
2017-08-02T01:33:08.033Z,0
2017-08-02T01:33:48.935Z,0
2017-08-02T01:34:29.849Z,0
2017-08-02T01:35:10.754Z,0
2017-08-02T01:35:51.640Z,0
2017-08-02T01:36:32.531Z,0
2017-08-02T01:37:13.426Z,0
2017-08-02T01:37:54.325Z,0
2017-08-02T01:38:35.221Z,0
2017-08-02T01:39:16.124Z,0
2017-08-02T01:39:57.006Z,0
2017-08-02T01:40:37.913Z,0
2017-08-02T01:41:18.810Z,0
2017-08-02T01:41:59.719Z,0
2017-08-02T01:42:40.618Z,0
2017-08-02T01:43:21.507Z,0
2017-08-02T01:44:02.411Z,0
2017-08-02T01:44:43.309Z,0
2017-08-02T01:45:24.206Z,0
2017-08-02T01:47:44.163Z,0
2017-08-02T01:48:25.060Z,0
2017-08-02T01:49:05.954Z,0
2017-08-02T01:49:46.842Z,0
2017-08-02T01:50:27.728Z,0
2017-08-02T01:51:08.629Z,0
2017-08-02T01:51:49.519Z,0
2017-08-02T01:52:30.524Z,0
2017-08-02T01:53:11.424Z,0
2017-08-02T01:53:52.312Z,0
2017-08-02T01:54:33.199Z,0
2017-08-02T01:55:14.088Z,0
2017-08-02T01:55:54.989Z,0
2017-08-02T01:56:35.878Z,0
2017-08-02T01:57:16.785Z,0
2017-08-02T01:57:57.680Z,0
2017-08-02T01:58:38.567Z,0
2017-08-02T01:59:19.483Z,0
2017-08-02T02:00:00.424Z,0
2017-08-02T02:00:41.283Z,0
2017-08-02T02:01:22.184Z,0
2017-08-02T02:02:03.080Z,0
2017-08-02T02:02:43.975Z,0
2017-08-02T02:03:24.866Z,0
2017-08-02T02:04:05.760Z,0
2017-08-02T02:04:46.657Z,0
2017-08-02T02:05:27.562Z,0
2017-08-02T02:06:08.457Z,0
2017-08-02T02:06:49.360Z,0
2017-08-02T02:07:30.248Z,0
2017-08-02T02:08:11.149Z,0
2017-08-02T02:08:52.054Z,0
2017-08-02T02:09:32.945Z,0
2017-08-02T02:10:13.832Z,0
2017-08-02T02:10:54.735Z,0
2017-08-02T02:11:35.625Z,0
2017-08-02T02:12:16.515Z,0
2017-08-02T02:12:57.413Z,0
2017-08-02T02:13:38.312Z,0
2017-08-02T02:14:19.206Z,0
2017-08-02T02:15:00.103Z,0
2017-08-02T02:15:40.999Z,0
2017-08-02T02:16:21.895Z,0
2017-08-02T02:17:02.792Z,0
2017-08-02T02:17:43.692Z,0
2017-08-02T02:19:43.489Z,0
2017-08-02T02:20:24.385Z,0
2017-08-02T02:21:05.273Z,0
2017-08-02T02:21:46.174Z,0
2017-08-02T02:22:27.056Z,0
2017-08-02T02:23:07.937Z,0
2017-08-02T02:23:48.860Z,0
2017-08-02T02:24:29.738Z,0
2017-08-02T02:25:10.627Z,0
2017-08-02T02:25:51.534Z,0
2017-08-02T02:26:32.514Z,0
2017-08-02T02:27:13.406Z,0
2017-08-02T02:27:54.296Z,0
2017-08-02T02:28:35.188Z,0
2017-08-02T02:29:16.080Z,0
2017-08-02T02:29:56.966Z,0
2017-08-02T02:30:37.867Z,0
2017-08-02T02:31:18.753Z,0
2017-08-02T02:31:59.650Z,0
2017-08-02T02:32:40.547Z,0
2017-08-02T02:33:21.435Z,0
2017-08-02T02:34:02.338Z,0
2017-08-02T02:34:43.231Z,0
2017-08-02T02:35:24.104Z,0
2017-08-02T02:36:05.003Z,0
2017-08-02T02:36:45.896Z,0
2017-08-02T02:37:26.796Z,0
2017-08-02T02:38:07.695Z,0
2017-08-02T02:38:48.579Z,0
2017-08-02T02:39:29.495Z,0
2017-08-02T02:40:10.369Z,0
2017-08-02T02:40:51.254Z,0
2017-08-02T02:41:32.140Z,0
2017-08-02T02:42:13.046Z,0
2017-08-02T02:42:53.927Z,0
2017-08-02T02:43:34.818Z,0
2017-08-02T02:44:15.716Z,0
2017-08-02T02:44:56.605Z,0
2017-08-02T02:45:37.492Z,0
2017-08-02T02:46:18.399Z,0
2017-08-02T02:46:59.279Z,0
2017-08-02T02:47:40.179Z,0
2017-08-02T02:48:21.072Z,0
2017-08-02T02:49:01.964Z,0
2017-08-02T02:49:42.859Z,0
2017-08-02T02:50:23.747Z,0
2017-08-02T02:51:04.641Z,0
2017-08-02T02:51:45.537Z,0
2017-08-02T02:52:26.428Z,0
2017-08-02T02:53:07.310Z,0
2017-08-02T02:53:48.213Z,0
2017-08-02T02:54:29.116Z,0
2017-08-02T02:55:10.019Z,0
2017-08-02T02:55:50.905Z,0
2017-08-02T02:56:31.808Z,0
2017-08-02T02:57:12.703Z,0
2017-08-02T02:57:53.602Z,0
2017-08-02T02:58:34.497Z,0
2017-08-02T02:59:15.392Z,0
2017-08-02T02:59:56.305Z,0
2017-08-02T03:00:37.202Z,0
2017-08-02T03:01:18.095Z,0
2017-08-02T03:03:28.239Z,0
2017-08-02T03:04:09.144Z,0
2017-08-02T03:04:50.041Z,0
2017-08-02T03:05:30.944Z,0
2017-08-02T03:06:11.835Z,0
2017-08-02T03:06:52.736Z,0
2017-08-02T03:07:33.625Z,0
2017-08-02T03:08:14.515Z,0
2017-08-02T03:08:55.416Z,0
2017-08-02T03:09:36.304Z,0
2017-08-02T03:10:17.196Z,0
2017-08-02T03:10:58.087Z,0
2017-08-02T03:11:38.973Z,0
2017-08-02T03:12:19.863Z,0
2017-08-02T03:13:00.747Z,0
2017-08-02T03:13:41.633Z,0
2017-08-02T03:14:22.523Z,0
2017-08-02T03:15:03.414Z,0
2017-08-02T03:15:44.313Z,0
2017-08-02T03:16:25.191Z,0
2017-08-02T03:17:06.081Z,0
2017-08-02T03:17:47.003Z,0
2017-08-02T03:18:27.877Z,0
2017-08-02T03:19:08.775Z,0
2017-08-02T03:19:49.677Z,0
2017-08-02T03:20:30.564Z,0
2017-08-02T03:21:11.473Z,0
2017-08-02T03:21:52.361Z,0
2017-08-02T03:22:33.272Z,0
2017-08-02T03:23:14.174Z,0
2017-08-02T03:23:55.058Z,0
2017-08-02T03:24:35.953Z,0
2017-08-02T03:25:16.857Z,0
2017-08-02T03:25:57.749Z,0
2017-08-02T03:26:38.629Z,5
2017-08-02T03:27:19.506Z,5
2017-08-02T03:28:00.400Z,5
2017-08-02T03:28:41.302Z,5
2017-08-02T03:29:22.195Z,5
2017-08-02T03:30:03.094Z,5
2017-08-02T03:30:44.006Z,5
2017-08-02T03:31:24.882Z,5
2017-08-02T03:32:05.761Z,5
2017-08-02T03:32:46.649Z,5
2017-08-02T03:33:27.541Z,5
2017-08-02T03:34:08.441Z,5
2017-08-02T03:34:49.362Z,5
2017-08-02T03:35:30.242Z,5
2017-08-02T03:36:11.124Z,10
2017-08-02T03:36:52.025Z,10
2017-08-02T03:37:32.910Z,10
2017-08-02T03:38:13.798Z,10
2017-08-02T03:38:54.702Z,10
2017-08-02T03:39:35.569Z,10
2017-08-02T03:40:16.452Z,10
2017-08-02T03:40:57.400Z,10
2017-08-02T03:41:38.216Z,10
2017-08-02T03:42:19.115Z,10
2017-08-02T03:42:59.995Z,15
2017-08-02T03:43:40.896Z,15
2017-08-02T03:44:21.796Z,15
2017-08-02T03:45:02.690Z,15
2017-08-02T03:45:43.591Z,15
2017-08-02T03:46:24.473Z,15
2017-08-02T03:47:05.370Z,15
2017-08-02T03:47:46.266Z,15
2017-08-02T03:48:27.167Z,20
2017-08-02T03:49:08.057Z,20
2017-08-02T03:49:48.952Z,20
2017-08-02T03:50:29.839Z,25
2017-08-02T03:51:10.730Z,25
2017-08-02T03:51:51.630Z,25
2017-08-02T03:52:32.524Z,30
2017-08-02T03:53:13.434Z,30
2017-08-02T03:53:54.315Z,30
2017-08-02T03:54:35.208Z,30
2017-08-02T03:55:16.104Z,30
2017-08-02T03:55:56.996Z,30
2017-08-02T03:56:37.944Z,35
2017-08-02T03:58:57.252Z,35
2017-08-02T03:59:38.140Z,40
2017-08-02T04:00:19.040Z,40
2017-08-02T04:00:59.926Z,40
2017-08-02T04:01:40.833Z,40
2017-08-02T04:02:21.717Z,40
2017-08-02T04:03:02.600Z,45
2017-08-02T04:03:43.501Z,45
2017-08-02T04:04:24.413Z,45
2017-08-02T04:05:05.306Z,45
2017-08-02T04:05:46.206Z,50
2017-08-02T04:06:27.101Z,50
2017-08-02T04:07:08.005Z,50
2017-08-02T04:07:48.907Z,50
2017-08-02T04:08:29.797Z,55
2017-08-02T04:09:10.698Z,55
2017-08-02T04:09:51.584Z,55
2017-08-02T04:10:32.489Z,55
2017-08-02T04:11:13.377Z,60
2017-08-02T04:11:54.280Z,60
2017-08-02T04:12:35.180Z,60
2017-08-02T04:13:16.071Z,60
2017-08-02T04:13:56.976Z,60
2017-08-02T04:14:37.870Z,65
2017-08-02T04:15:18.767Z,65
2017-08-02T04:15:59.642Z,65
2017-08-02T04:16:40.543Z,75
2017-08-02T04:17:21.436Z,70
2017-08-02T04:18:02.333Z,75
2017-08-02T04:18:43.226Z,75
2017-08-02T04:19:24.133Z,75
2017-08-02T04:20:05.023Z,75
2017-08-02T04:20:45.918Z,75
2017-08-02T04:21:26.807Z,80
2017-08-02T04:22:07.712Z,80
2017-08-02T04:22:48.609Z,85
2017-08-02T04:23:29.490Z,85
2017-08-02T04:24:10.389Z,90
2017-08-02T04:24:51.278Z,90
2017-08-02T04:25:32.247Z,95
2017-08-02T04:26:13.144Z,90
2017-08-02T04:26:54.047Z,90
2017-08-02T04:27:34.970Z,90
2017-08-02T04:28:15.873Z,85
2017-08-02T04:28:56.744Z,85
2017-08-02T04:29:37.644Z,90
2017-08-02T04:30:18.551Z,85
2017-08-02T04:30:59.447Z,85
2017-08-02T04:31:40.339Z,85
2017-08-02T04:32:21.236Z,85
2017-08-02T04:33:02.129Z,90
2017-08-02T04:33:43.019Z,85
2017-08-02T04:34:23.920Z,85
2017-08-02T04:35:04.811Z,85
2017-08-02T04:35:45.719Z,85
2017-08-02T04:37:55.761Z,80
2017-08-02T04:38:36.673Z,80
2017-08-02T04:39:17.574Z,75
2017-08-02T04:39:58.485Z,70
2017-08-02T04:40:39.383Z,70
2017-08-02T04:41:20.265Z,70
2017-08-02T04:42:01.146Z,70
2017-08-02T04:42:42.039Z,75
2017-08-02T04:43:22.929Z,75
2017-08-02T04:44:03.820Z,70
2017-08-02T04:44:44.722Z,70
2017-08-02T04:45:25.611Z,65
2017-08-02T04:46:06.502Z,65
2017-08-02T04:46:47.404Z,65
2017-08-02T04:47:28.292Z,65
2017-08-02T04:48:09.308Z,70
2017-08-02T04:48:50.247Z,70
2017-08-02T04:49:31.091Z,70
2017-08-02T04:50:11.991Z,70
2017-08-02T04:50:52.893Z,70
2017-08-02T04:51:33.789Z,65
2017-08-02T04:52:14.688Z,70
2017-08-02T04:52:55.581Z,70
2017-08-02T04:53:36.462Z,75
2017-08-02T04:54:17.367Z,80
2017-08-02T04:54:58.261Z,80
2017-08-02T04:55:39.163Z,85
2017-08-02T04:56:20.058Z,85
2017-08-02T04:57:00.982Z,80
2017-08-02T04:57:41.867Z,80
2017-08-02T04:58:22.763Z,80
2017-08-02T04:59:03.663Z,80
2017-08-02T04:59:44.564Z,80
2017-08-02T05:00:25.461Z,80
2017-08-02T05:01:06.350Z,80
2017-08-02T05:01:47.238Z,80
2017-08-02T05:02:28.132Z,80
2017-08-02T05:03:09.042Z,80
2017-08-02T05:03:49.929Z,80
2017-08-02T05:04:30.826Z,85
2017-08-02T05:05:11.720Z,85
2017-08-02T05:05:52.614Z,85
2017-08-02T05:06:33.515Z,90
2017-08-02T05:07:14.401Z,95
2017-08-02T05:07:55.292Z,100
2017-08-02T05:08:36.186Z,105
2017-08-02T05:09:17.068Z,115
2017-08-02T05:09:57.957Z,120
2017-08-02T05:10:38.857Z,130
2017-08-02T05:11:19.751Z,135
2017-08-02T05:12:00.643Z,135
2017-08-02T05:12:41.541Z,140
2017-08-02T05:13:22.437Z,145
2017-08-02T05:14:03.336Z,145
2017-08-02T05:14:44.233Z,140
2017-08-02T05:15:25.114Z,140
2017-08-02T05:16:06.008Z,135
2017-08-02T05:16:46.901Z,135
2017-08-02T05:17:27.782Z,130
2017-08-02T05:18:08.697Z,135
2017-08-02T05:18:49.592Z,140
2017-08-02T05:19:30.483Z,150
2017-08-02T05:20:11.407Z,155
2017-08-02T05:20:52.314Z,155
2017-08-02T05:21:33.225Z,155
2017-08-02T05:22:14.126Z,155
2017-08-02T05:22:55.010Z,150
2017-08-02T05:23:35.900Z,145
2017-08-02T05:24:16.809Z,140
2017-08-02T05:24:57.657Z,135
2017-08-02T05:25:38.549Z,140
2017-08-02T05:26:19.446Z,145
2017-08-02T05:27:00.342Z,150
2017-08-02T05:27:41.241Z,160
2017-08-02T05:28:22.135Z,170
2017-08-02T05:29:03.034Z,170
2017-08-02T05:29:44.031Z,165
2017-08-02T05:30:24.910Z,155
2017-08-02T05:31:05.814Z,150
2017-08-02T05:33:15.809Z,160
2017-08-02T05:33:56.715Z,165
2017-08-02T05:34:37.606Z,175
2017-08-02T05:35:18.499Z,180
2017-08-02T05:35:59.395Z,175
2017-08-02T05:36:40.283Z,170
2017-08-02T05:37:21.178Z,170
2017-08-02T05:38:02.093Z,175
2017-08-02T05:38:42.993Z,180
2017-08-02T05:39:23.897Z,185
2017-08-02T05:40:04.790Z,200
2017-08-02T05:40:45.687Z,205
2017-08-02T05:41:26.588Z,205
2017-08-02T05:42:07.474Z,205
2017-08-02T05:42:48.368Z,210
2017-08-02T05:43:29.291Z,210
2017-08-02T05:44:10.204Z,210
2017-08-02T05:44:51.080Z,215
2017-08-02T05:45:31.983Z,215
2017-08-02T05:46:12.874Z,215
2017-08-02T05:46:53.759Z,215
2017-08-02T05:47:34.642Z,210
2017-08-02T05:48:15.534Z,210
2017-08-02T05:48:56.433Z,215
2017-08-02T05:49:37.318Z,210
2017-08-02T05:50:18.214Z,215
2017-08-02T05:50:59.108Z,220
2017-08-02T05:51:39.991Z,220
2017-08-02T05:52:20.884Z,220
2017-08-02T05:53:01.785Z,220
2017-08-02T05:53:42.687Z,220
2017-08-02T05:54:23.609Z,225
2017-08-02T05:55:04.474Z,230
2017-08-02T05:55:45.377Z,235
2017-08-02T05:56:26.278Z,235
2017-08-02T05:57:07.172Z,245
2017-08-02T05:57:48.077Z,250
2017-08-02T05:58:28.981Z,250
2017-08-02T05:59:09.881Z,250
2017-08-02T05:59:50.776Z,255
2017-08-02T06:00:31.664Z,255
2017-08-02T06:01:12.553Z,260
2017-08-02T06:01:53.453Z,255
2017-08-02T06:02:34.338Z,255
2017-08-02T06:03:15.230Z,255
2017-08-02T06:03:56.123Z,255
2017-08-02T06:04:37.014Z,260
2017-08-02T06:05:17.923Z,260
2017-08-02T06:05:58.808Z,260
2017-08-02T06:06:39.712Z,270
2017-08-02T06:07:20.602Z,265
2017-08-02T06:08:01.524Z,265
2017-08-02T06:08:42.422Z,265
2017-08-02T06:09:23.320Z,265
2017-08-02T06:10:04.220Z,265
2017-08-02T06:10:45.113Z,275
2017-08-02T06:11:26.009Z,285
2017-08-02T06:12:06.907Z,300
2017-08-02T06:12:47.809Z,310
2017-08-02T06:13:28.701Z,315
2017-08-02T06:14:09.605Z,330
2017-08-02T06:14:50.511Z,335
2017-08-02T06:15:31.415Z,350
2017-08-02T06:16:12.301Z,360
2017-08-02T06:16:53.234Z,375
2017-08-02T06:17:34.128Z,390
2017-08-02T06:18:15.031Z,400
2017-08-02T06:18:55.949Z,410
2017-08-02T06:19:36.837Z,420
2017-08-02T06:20:17.728Z,435
2017-08-02T06:20:58.625Z,450
2017-08-02T06:21:39.525Z,445
2017-08-02T06:22:20.493Z,445
2017-08-02T06:23:01.407Z,440
2017-08-02T06:23:42.315Z,440
2017-08-02T06:24:23.210Z,425
2017-08-02T06:25:04.105Z,395
2017-08-02T06:25:44.998Z,365
2017-08-02T06:26:25.900Z,330
2017-08-02T06:27:07.020Z,305
2017-08-02T06:27:47.915Z,305
2017-08-02T06:28:28.815Z,300
2017-08-02T06:29:09.715Z,265
2017-08-02T06:29:50.615Z,265
2017-08-02T06:30:31.764Z,265
2017-08-02T06:31:12.662Z,275
2017-08-02T06:31:53.564Z,285
2017-08-02T06:32:34.457Z,310
2017-08-02T06:33:15.357Z,345
2017-08-02T06:33:56.243Z,395
2017-08-02T06:34:37.141Z,445
2017-08-02T06:35:18.032Z,505
2017-08-02T06:35:58.931Z,540
2017-08-02T06:36:39.831Z,585
2017-08-02T06:37:20.728Z,610
2017-08-02T06:38:01.623Z,700
2017-08-02T06:38:42.523Z,915
2017-08-02T06:39:23.420Z,1080
2017-08-02T06:40:04.332Z,710
2017-08-02T06:40:45.232Z,790
2017-08-02T06:41:26.134Z,560
2017-08-02T06:42:07.044Z,415
2017-08-02T06:42:47.952Z,415
2017-08-02T06:43:28.862Z,405
2017-08-02T06:44:09.757Z,410
2017-08-02T06:44:50.654Z,430
2017-08-02T06:45:31.545Z,370
2017-08-02T06:46:12.435Z,360
2017-08-02T06:46:53.333Z,360
2017-08-02T06:47:34.222Z,335
2017-08-02T06:48:15.133Z,335
2017-08-02T06:48:56.022Z,335
2017-08-02T06:49:36.916Z,330
2017-08-02T06:50:17.830Z,325
2017-08-02T06:50:58.722Z,320
2017-08-02T06:51:39.628Z,330
2017-08-02T06:52:20.523Z,320
2017-08-02T06:53:01.413Z,325
2017-08-02T06:53:42.317Z,370
2017-08-02T06:54:23.248Z,330
2017-08-02T06:55:04.138Z,330
2017-08-02T06:55:45.052Z,320
2017-08-02T06:56:25.943Z,320
2017-08-02T06:57:06.833Z,320
2017-08-02T06:57:47.732Z,315
2017-08-02T06:58:28.640Z,315
2017-08-02T06:59:09.536Z,315
2017-08-02T06:59:50.436Z,320
2017-08-02T07:01:49.314Z,305
2017-08-02T07:02:30.220Z,305
2017-08-02T07:03:11.125Z,315
2017-08-02T07:03:52.016Z,310
2017-08-02T07:04:32.916Z,315
2017-08-02T07:05:13.812Z,305
2017-08-02T07:05:54.698Z,305
2017-08-02T07:06:35.582Z,310
2017-08-02T07:07:16.466Z,315
2017-08-02T07:07:57.367Z,315
2017-08-02T07:08:38.268Z,315
2017-08-02T07:09:19.162Z,320
2017-08-02T07:10:00.060Z,325
2017-08-02T07:10:40.953Z,330
2017-08-02T07:11:21.831Z,335
2017-08-02T07:12:02.736Z,340
2017-08-02T07:12:43.633Z,350
2017-08-02T07:13:24.543Z,370
2017-08-02T07:14:05.433Z,440
2017-08-02T07:16:24.718Z,900
2017-08-02T07:17:05.597Z,1160
2017-08-02T07:17:46.481Z,1015
2017-08-02T07:18:27.367Z,1225
2017-08-02T07:19:08.252Z,995
2017-08-02T07:19:49.149Z,1705
2017-08-02T07:20:30.035Z,760
2017-08-02T07:21:10.922Z,775
2017-08-02T07:21:51.803Z,650
2017-08-02T07:22:32.681Z,560
2017-08-02T07:23:13.565Z,605
2017-08-02T07:23:54.452Z,665
2017-08-02T07:24:35.332Z,635
2017-08-02T07:25:16.222Z,815
2017-08-02T07:25:57.100Z,735
2017-08-02T07:26:37.991Z,700
2017-08-02T07:27:18.858Z,610
2017-08-02T07:27:59.751Z,665
2017-08-02T07:28:40.712Z,790
2017-08-02T07:29:21.587Z,655
2017-08-02T07:30:02.474Z,655
2017-08-02T07:30:43.361Z,1145
2017-08-02T07:31:24.257Z,975
2017-08-02T07:32:05.136Z,890
2017-08-02T07:32:46.022Z,1175
2017-08-02T07:33:26.944Z,745
2017-08-02T07:34:07.839Z,1290
2017-08-02T07:34:48.720Z,1215
2017-08-02T07:35:29.610Z,1800
2017-08-02T07:36:10.539Z,1365
2017-08-02T07:36:51.419Z,880
2017-08-02T07:37:32.299Z,865
2017-08-02T07:38:13.181Z,795
2017-08-02T07:38:54.068Z,700
2017-08-02T07:39:34.959Z,715
2017-08-02T07:40:15.839Z,590
2017-08-02T07:40:56.717Z,575
2017-08-02T07:41:37.622Z,590
2017-08-02T07:42:18.500Z,645
2017-08-02T07:42:59.380Z,625
2017-08-02T07:43:40.270Z,610
2017-08-02T07:44:21.171Z,610
2017-08-02T07:45:02.074Z,580
2017-08-02T07:45:42.970Z,570
2017-08-02T07:46:23.884Z,575
2017-08-02T07:47:04.771Z,615
2017-08-02T07:47:45.664Z,570
2017-08-02T07:48:26.567Z,610
2017-08-02T07:49:07.454Z,635
2017-08-02T07:49:48.342Z,595
2017-08-02T07:50:29.236Z,620
2017-08-02T07:51:10.140Z,585
2017-08-02T07:51:51.029Z,500
2017-08-02T07:52:31.907Z,490
2017-08-02T07:53:12.821Z,505
2017-08-02T07:53:53.706Z,510
2017-08-02T07:54:34.595Z,535
2017-08-02T07:55:15.477Z,495
2017-08-02T07:55:56.381Z,485
2017-08-02T07:56:37.272Z,505
2017-08-02T07:57:18.161Z,535
2017-08-02T07:57:59.041Z,570
2017-08-02T07:58:39.950Z,500
2017-08-02T07:59:20.841Z,480
2017-08-02T08:00:01.741Z,510
2017-08-02T08:00:42.652Z,495
2017-08-02T08:01:23.634Z,500
2017-08-02T08:02:04.522Z,425
2017-08-02T08:02:45.413Z,405
2017-08-02T08:03:26.306Z,400
2017-08-02T08:04:07.190Z,420
2017-08-02T08:04:48.131Z,490
2017-08-02T08:05:29.010Z,550
2017-08-02T08:06:09.900Z,515
2017-08-02T08:06:50.804Z,640
2017-08-02T08:07:31.695Z,620
2017-08-02T08:08:12.576Z,520
2017-08-02T08:08:53.493Z,525
2017-08-02T08:09:34.377Z,590
2017-08-02T08:10:15.280Z,600
2017-08-02T08:10:56.170Z,600
2017-08-02T08:11:37.042Z,730
2017-08-02T08:12:17.953Z,1255
2017-08-02T08:12:58.853Z,950
2017-08-02T08:13:39.731Z,745
2017-08-02T08:14:20.633Z,760
2017-08-02T08:15:01.530Z,670
2017-08-02T08:15:42.419Z,610
2017-08-02T08:16:23.319Z,775
2017-08-02T08:17:04.231Z,1230
2017-08-02T08:17:45.134Z,1475
2017-08-02T08:18:26.020Z,735
2017-08-02T08:19:06.926Z,790
2017-08-02T08:19:47.822Z,1285
2017-08-02T08:20:28.725Z,1445
2017-08-02T08:21:09.626Z,1115
2017-08-02T08:21:50.494Z,1300
2017-08-02T08:22:31.389Z,1255
2017-08-02T08:23:12.293Z,1345
2017-08-02T08:23:53.178Z,1105
2017-08-02T08:24:34.074Z,815
2017-08-02T08:25:14.952Z,915
2017-08-02T08:25:55.852Z,1065
2017-08-02T08:26:36.742Z,1760
2017-08-02T08:27:17.653Z,1245
2017-08-02T08:27:58.532Z,1520
2017-08-02T08:28:39.419Z,1095
2017-08-02T08:29:20.313Z,1805
2017-08-02T08:30:01.216Z,1855
2017-08-02T08:30:42.107Z,1475
2017-08-02T08:31:23.006Z,1150
2017-08-02T08:32:03.899Z,1710
2017-08-02T08:32:44.799Z,1720
2017-08-02T08:33:25.707Z,1070
2017-08-02T08:34:06.607Z,2030
2017-08-02T08:34:47.569Z,1855
2017-08-02T08:37:06.901Z,1250
2017-08-02T08:37:47.813Z,1745
2017-08-02T08:38:28.710Z,1450
2017-08-02T08:39:09.617Z,525
2017-08-02T08:39:50.515Z,490
2017-08-02T08:40:31.417Z,515
2017-08-02T08:41:12.316Z,430
2017-08-02T08:41:53.207Z,405
2017-08-02T08:42:34.123Z,405
2017-08-02T08:43:15.008Z,380
2017-08-02T08:43:55.913Z,320
2017-08-02T08:44:36.807Z,270
2017-08-02T08:45:17.690Z,250
2017-08-02T08:45:58.563Z,245
2017-08-02T08:46:39.442Z,265
2017-08-02T08:47:20.330Z,285
2017-08-02T08:48:01.214Z,270
2017-08-02T08:48:42.112Z,245
2017-08-02T08:49:23.023Z,225
2017-08-02T08:50:03.911Z,235
2017-08-02T08:50:44.802Z,260
2017-08-02T08:51:25.697Z,300
2017-08-02T08:52:06.605Z,340
2017-08-02T08:52:47.514Z,385
2017-08-02T08:53:28.415Z,405
2017-08-02T08:54:09.314Z,400
2017-08-02T08:54:50.187Z,410
2017-08-02T08:55:31.066Z,455
2017-08-02T08:56:11.962Z,550
2017-08-02T08:56:52.865Z,720
2017-08-02T08:57:33.744Z,715
2017-08-02T08:58:14.638Z,1070
2017-08-02T08:58:55.513Z,1690
2017-08-02T08:59:36.400Z,755
2017-08-02T09:00:17.281Z,560
2017-08-02T09:00:58.173Z,605
2017-08-02T09:01:39.074Z,795
2017-08-02T09:02:19.960Z,735
2017-08-02T09:03:00.814Z,810
2017-08-02T09:03:41.700Z,945
2017-08-02T09:04:22.610Z,1020
2017-08-02T09:05:03.499Z,955
2017-08-02T09:05:44.426Z,1005
2017-08-02T09:06:25.298Z,720
2017-08-02T09:07:06.192Z,640
2017-08-02T09:07:47.084Z,565
2017-08-02T09:08:27.971Z,525
2017-08-02T09:09:08.869Z,560
2017-08-02T09:09:49.762Z,565
2017-08-02T09:10:30.647Z,590
2017-08-02T09:11:11.524Z,465
2017-08-02T09:11:52.428Z,415
2017-08-02T09:12:33.323Z,410
2017-08-02T09:13:14.212Z,485
2017-08-02T09:13:55.116Z,565
2017-08-02T09:14:35.986Z,650
2017-08-02T09:15:16.872Z,755
2017-08-02T09:15:57.752Z,640
2017-08-02T09:16:38.645Z,630
2017-08-02T09:17:19.511Z,780
2017-08-02T09:18:00.388Z,1095
2017-08-02T09:18:41.262Z,1300
2017-08-02T09:19:22.150Z,900
2017-08-02T09:20:03.025Z,905
2017-08-02T09:20:43.916Z,2055
2017-08-02T09:21:24.784Z,1855
2017-08-02T09:22:05.678Z,1755
2017-08-02T09:22:46.560Z,2055
2017-08-02T09:23:27.464Z,740
2017-08-02T09:24:08.341Z,770
2017-08-02T09:24:49.235Z,1030
2017-08-02T09:25:30.122Z,750
2017-08-02T09:26:11.009Z,1710
2017-08-02T09:26:51.940Z,1040
2017-08-02T09:27:32.847Z,1315
2017-08-02T09:28:13.748Z,805
2017-08-02T09:28:54.648Z,710
2017-08-02T09:29:35.604Z,870
2017-08-02T09:30:16.418Z,1065
2017-08-02T09:30:57.307Z,1880
2017-08-02T09:31:38.200Z,2175
2017-08-02T09:32:19.092Z,2465
2017-08-02T09:32:59.970Z,2335
2017-08-02T09:33:40.856Z,2390
2017-08-02T09:34:21.799Z,2470
2017-08-02T09:35:02.672Z,2420
2017-08-02T09:35:43.564Z,2130
2017-08-02T09:36:24.455Z,2160
2017-08-02T09:37:05.354Z,1265
2017-08-02T09:37:46.260Z,920
2017-08-02T09:38:27.169Z,1225
2017-08-02T09:39:08.047Z,500
2017-08-02T09:39:48.947Z,430
2017-08-02T09:40:29.844Z,390
2017-08-02T09:41:10.753Z,375
2017-08-02T09:41:51.651Z,385
2017-08-02T09:42:32.550Z,410
2017-08-02T09:43:13.440Z,455
2017-08-02T09:43:54.326Z,480
2017-08-02T09:44:35.215Z,485
2017-08-02T09:45:16.122Z,425
2017-08-02T09:45:57.015Z,355
2017-08-02T09:46:37.932Z,345
2017-08-02T09:47:18.829Z,385
2017-08-02T09:47:59.730Z,450
2017-08-02T09:48:40.620Z,560
2017-08-02T09:49:21.512Z,635
2017-08-02T09:51:20.342Z,570
2017-08-02T09:52:01.216Z,680
2017-08-02T09:52:42.105Z,715
2017-08-02T09:53:23.001Z,725
2017-08-02T09:54:03.914Z,825